createdAt,value
2017-06-14T00:00:13.637Z,13.87
2017-06-14T00:01:14.224Z,13.70
2017-06-14T00:02:14.799Z,13.72
2017-06-14T00:03:15.384Z,13.93
2017-06-14T00:04:15.970Z,14.03
2017-06-14T00:05:16.548Z,14.00
2017-06-14T00:06:17.119Z,13.85
2017-06-14T00:07:17.694Z,14.18
2017-06-14T00:08:18.268Z,14.15
2017-06-14T00:09:18.843Z,14.47
2017-06-14T00:10:19.417Z,14.28
2017-06-14T00:11:19.990Z,14.18
2017-06-14T00:12:20.565Z,14.15
2017-06-14T00:13:21.139Z,14.10
2017-06-14T00:14:21.713Z,14.18
2017-06-14T00:15:22.287Z,14.03
2017-06-14T00:16:22.862Z,14.22
2017-06-14T00:17:23.435Z,13.95
2017-06-14T00:18:24.013Z,14.33
2017-06-14T00:19:24.583Z,14.23
2017-06-14T00:20:25.157Z,13.67
2017-06-14T00:21:25.731Z,13.87
2017-06-14T00:22:26.306Z,13.52
2017-06-14T00:23:26.880Z,13.44
2017-06-14T00:24:27.454Z,13.53
2017-06-14T00:25:28.028Z,13.60
2017-06-14T00:26:28.603Z,13.44
2017-06-14T00:27:29.178Z,13.23
2017-06-14T00:28:29.751Z,13.15
2017-06-14T00:29:30.325Z,13.30
2017-06-14T00:30:30.900Z,13.54
2017-06-14T00:31:31.472Z,13.19
2017-06-14T00:32:32.046Z,13.41
2017-06-14T00:33:32.634Z,13.56
2017-06-14T00:34:33.207Z,13.57
2017-06-14T00:35:33.784Z,13.50
2017-06-14T00:36:34.370Z,13.44
2017-06-14T00:37:34.945Z,13.72
2017-06-14T00:38:35.521Z,13.54
2017-06-14T00:39:36.094Z,13.89
2017-06-14T00:40:36.669Z,13.97
2017-06-14T00:41:37.243Z,13.75
2017-06-14T00:42:37.817Z,13.67
2017-06-14T00:43:38.391Z,14.05
2017-06-14T00:44:38.968Z,13.99
2017-06-14T00:45:39.541Z,13.53
2017-06-14T00:46:40.115Z,13.52
2017-06-14T00:47:40.691Z,13.19
2017-06-14T00:48:41.264Z,13.53
2017-06-14T00:49:41.836Z,13.90
2017-06-14T00:50:42.411Z,14.03
2017-06-14T00:51:42.983Z,13.65
2017-06-14T00:52:43.558Z,13.60
2017-06-14T00:53:44.131Z,13.42
2017-06-14T00:54:44.705Z,13.38
2017-06-14T00:55:45.278Z,13.38
2017-06-14T00:56:45.852Z,13.44
2017-06-14T00:57:46.427Z,13.19
2017-06-14T00:58:47.001Z,13.13
2017-06-14T00:59:47.575Z,13.49
2017-06-14T01:00:48.150Z,13.38
2017-06-14T01:01:48.724Z,13.28
2017-06-14T01:02:49.297Z,13.13
2017-06-14T01:03:49.872Z,13.09
2017-06-14T01:04:50.445Z,12.80
2017-06-14T01:05:51.020Z,12.94
2017-06-14T01:06:51.593Z,13.12
2017-06-14T01:07:52.183Z,13.56
2017-06-14T01:08:52.768Z,13.31
2017-06-14T01:09:53.343Z,13.12
2017-06-14T01:10:53.918Z,12.73
2017-06-14T01:11:54.491Z,13.03
2017-06-14T01:12:55.067Z,13.11
2017-06-14T01:13:55.642Z,13.41
2017-06-14T01:14:56.227Z,13.28
2017-06-14T01:15:56.801Z,13.11
2017-06-14T01:16:57.387Z,13.42
2017-06-14T01:17:57.963Z,13.12
2017-06-14T01:18:58.537Z,13.08
2017-06-14T01:19:59.111Z,12.98
2017-06-14T01:20:59.684Z,12.85
2017-06-14T01:22:00.258Z,12.85
2017-06-14T01:23:00.843Z,12.85
2017-06-14T01:24:01.418Z,12.68
2017-06-14T01:25:01.994Z,12.79
2017-06-14T01:26:02.567Z,12.91
2017-06-14T01:27:03.143Z,12.76
2017-06-14T01:28:03.717Z,12.75
2017-06-14T01:29:04.292Z,12.90
2017-06-14T01:30:04.865Z,13.15
2017-06-14T01:31:05.440Z,13.18
2017-06-14T01:32:06.012Z,12.72
2017-06-14T01:33:06.588Z,12.50
2017-06-14T01:34:07.161Z,12.75
2017-06-14T01:35:07.735Z,12.68
2017-06-14T01:36:08.320Z,12.91
2017-06-14T01:37:08.894Z,12.67
2017-06-14T01:38:09.470Z,12.90
2017-06-14T01:39:10.056Z,13.01
2017-06-14T01:40:10.630Z,12.91
2017-06-14T01:41:11.206Z,12.64
2017-06-14T01:42:11.780Z,13.15
2017-06-14T01:43:12.355Z,13.12
2017-06-14T01:44:12.929Z,13.18
2017-06-14T01:45:13.506Z,13.11
2017-06-14T01:46:14.078Z,12.94
2017-06-14T01:47:14.653Z,12.85
2017-06-14T01:48:15.225Z,12.55
2017-06-14T01:49:15.801Z,12.43
2017-06-14T01:50:16.374Z,12.43
2017-06-14T01:51:16.948Z,12.46
2017-06-14T01:52:17.523Z,12.80
2017-06-14T01:53:18.097Z,12.55
2017-06-14T01:54:18.670Z,12.43
2017-06-14T01:55:19.244Z,12.75
2017-06-14T01:56:19.818Z,12.76
2017-06-14T01:57:20.392Z,12.43
2017-06-14T01:58:20.977Z,12.67
2017-06-14T01:59:21.550Z,12.43
2017-06-14T02:00:22.127Z,12.93
2017-06-14T02:01:22.699Z,12.78
2017-06-14T02:02:23.274Z,12.75
2017-06-14T02:03:23.848Z,12.91
2017-06-14T02:04:24.422Z,12.78
2017-06-14T02:05:24.995Z,12.94
2017-06-14T02:06:25.571Z,13.11
2017-06-14T02:07:26.144Z,12.82
2017-06-14T02:08:26.717Z,12.93
2017-06-14T02:09:27.290Z,12.79
2017-06-14T02:10:27.863Z,12.90
2017-06-14T02:11:28.437Z,12.70
2017-06-14T02:12:29.009Z,12.93
2017-06-14T02:13:29.584Z,13.19
2017-06-14T02:14:30.156Z,13.20
2017-06-14T02:15:30.729Z,13.35
2017-06-14T02:16:31.303Z,12.90
2017-06-14T02:17:31.876Z,12.54
2017-06-14T02:18:32.449Z,12.57
2017-06-14T02:19:33.023Z,12.40
2017-06-14T02:20:33.596Z,12.65
2017-06-14T02:21:34.169Z,12.36
2017-06-14T02:22:34.743Z,12.21
2017-06-14T02:23:35.316Z,12.24
2017-06-14T02:24:35.888Z,12.28
2017-06-14T02:25:36.462Z,12.09
2017-06-14T02:26:37.036Z,12.20
2017-06-14T02:27:37.609Z,12.07
2017-06-14T02:28:38.183Z,12.17
2017-06-14T02:29:38.769Z,11.91
2017-06-14T02:30:39.340Z,12.03
2017-06-14T02:31:39.915Z,11.83
2017-06-14T02:32:40.489Z,11.75
2017-06-14T02:33:41.067Z,12.12
2017-06-14T02:34:41.637Z,12.15
2017-06-14T02:35:42.210Z,12.39
2017-06-14T02:36:42.784Z,12.13
2017-06-14T02:37:43.357Z,11.77
2017-06-14T02:38:43.930Z,11.69
2017-06-14T02:39:44.504Z,11.45
2017-06-14T02:40:45.076Z,11.27
2017-06-14T02:41:45.650Z,11.23
2017-06-14T02:42:46.222Z,11.43
2017-06-14T02:43:46.795Z,11.17
2017-06-14T02:44:47.369Z,11.14
2017-06-14T02:45:47.942Z,11.66
2017-06-14T02:46:48.527Z,11.72
2017-06-14T02:47:49.100Z,11.99
2017-06-14T02:48:49.675Z,12.00
2017-06-14T02:49:50.248Z,11.73
2017-06-14T02:50:50.823Z,11.63
2017-06-14T02:51:51.396Z,11.68
2017-06-14T02:52:51.970Z,11.51
2017-06-14T02:53:52.543Z,11.54
2017-06-14T02:54:53.116Z,11.52
2017-06-14T02:55:53.690Z,11.47
2017-06-14T02:56:54.274Z,11.65
2017-06-14T02:57:54.850Z,12.00
2017-06-14T02:58:55.423Z,12.06
2017-06-14T02:59:55.997Z,11.95
2017-06-14T03:00:56.571Z,12.03
2017-06-14T03:01:57.147Z,12.04
2017-06-14T03:02:57.719Z,12.22
2017-06-14T03:03:58.293Z,11.91
2017-06-14T03:04:58.867Z,11.72
2017-06-14T03:05:59.441Z,11.50
2017-06-14T03:07:00.014Z,11.97
2017-06-14T03:08:00.588Z,11.83
2017-06-14T03:09:01.162Z,12.07
2017-06-14T03:10:01.739Z,11.69
2017-06-14T03:11:02.314Z,11.48
2017-06-14T03:12:02.888Z,11.36
2017-06-14T03:13:03.463Z,11.23
2017-06-14T03:14:04.037Z,11.37
2017-06-14T03:15:04.612Z,11.45
2017-06-14T03:16:05.186Z,11.57
2017-06-14T03:17:05.772Z,11.40
2017-06-14T03:18:06.348Z,11.23
2017-06-14T03:19:06.921Z,11.73
2017-06-14T03:20:07.496Z,12.06
2017-06-14T03:21:08.072Z,11.51
2017-06-14T03:22:08.643Z,11.45
2017-06-14T03:23:09.218Z,12.00
2017-06-14T03:24:09.791Z,11.95
2017-06-14T03:25:10.365Z,11.91
2017-06-14T03:26:10.938Z,11.83
2017-06-14T03:27:11.515Z,12.04
2017-06-14T03:28:12.089Z,11.65
2017-06-14T03:29:12.666Z,11.72
2017-06-14T03:30:13.238Z,11.87
2017-06-14T03:31:13.814Z,11.52
2017-06-14T03:32:14.400Z,11.80
2017-06-14T03:33:14.975Z,11.83
2017-06-14T03:34:15.550Z,12.00
2017-06-14T03:35:16.124Z,11.70
2017-06-14T03:36:16.700Z,12.12
2017-06-14T03:37:17.273Z,12.54
2017-06-14T03:38:17.847Z,12.43
2017-06-14T03:39:18.420Z,12.20
2017-06-14T03:40:18.993Z,11.81
2017-06-14T03:41:19.567Z,11.57
2017-06-14T03:42:20.140Z,11.44
2017-06-14T03:43:20.728Z,11.45
2017-06-14T03:44:21.303Z,11.05
2017-06-14T03:45:21.877Z,11.33
2017-06-14T03:46:22.453Z,11.95
2017-06-14T03:47:23.028Z,12.31
2017-06-14T03:48:23.605Z,12.70
2017-06-14T03:49:24.179Z,12.73
2017-06-14T03:50:24.757Z,12.65
2017-06-14T03:51:25.331Z,12.12
2017-06-14T03:52:25.905Z,12.68
2017-06-14T03:53:26.481Z,12.55
2017-06-14T03:54:27.055Z,12.22
2017-06-14T03:55:27.632Z,11.80
2017-06-14T03:56:28.207Z,11.51
2017-06-14T03:57:28.785Z,11.66
2017-06-14T03:58:29.359Z,11.47
2017-06-14T03:59:29.934Z,12.28
2017-06-14T04:00:30.509Z,12.24
2017-06-14T04:01:31.084Z,12.15
2017-06-14T04:02:31.660Z,12.07
2017-06-14T04:03:32.236Z,12.10
2017-06-14T04:04:32.812Z,11.60
2017-06-14T04:05:33.400Z,11.62
2017-06-14T04:06:33.987Z,11.77
2017-06-14T04:07:34.574Z,12.07
2017-06-14T04:08:35.150Z,12.27
2017-06-14T04:09:35.724Z,11.95
2017-06-14T04:10:36.298Z,12.68
2017-06-14T04:11:36.873Z,12.83
2017-06-14T04:12:37.449Z,12.76
2017-06-14T04:13:38.025Z,12.42
2017-06-14T04:14:38.612Z,12.35
2017-06-14T04:15:39.188Z,12.32
2017-06-14T04:16:39.764Z,12.31
2017-06-14T04:17:40.339Z,12.64
2017-06-14T04:18:40.917Z,12.64
2017-06-14T04:19:41.493Z,12.36
2017-06-14T04:20:42.069Z,12.40
2017-06-14T04:21:42.647Z,12.13
2017-06-14T04:22:43.224Z,12.15
2017-06-14T04:23:43.802Z,11.87
2017-06-14T04:24:44.377Z,12.42
2017-06-14T04:25:44.966Z,12.94
2017-06-14T04:26:45.543Z,12.80
2017-06-14T04:27:46.118Z,12.49
2017-06-14T04:28:46.694Z,12.12
2017-06-14T04:29:47.273Z,12.00
2017-06-14T04:30:47.860Z,12.10
2017-06-14T04:31:48.438Z,12.54
2017-06-14T04:32:49.016Z,12.83
2017-06-14T04:33:49.605Z,13.04
2017-06-14T04:34:50.181Z,13.53
2017-06-14T04:35:50.759Z,13.23
2017-06-14T04:36:51.335Z,12.94
2017-06-14T04:37:51.911Z,12.70
2017-06-14T04:38:52.489Z,12.72
2017-06-14T04:39:53.066Z,12.76
2017-06-14T04:40:53.644Z,12.61
2017-06-14T04:41:54.220Z,12.54
2017-06-14T04:42:54.797Z,12.87
2017-06-14T04:43:55.374Z,12.86
2017-06-14T04:44:55.951Z,12.90
2017-06-14T04:45:56.530Z,13.28
2017-06-14T04:46:57.106Z,13.23
2017-06-14T04:47:57.682Z,13.09
2017-06-14T04:48:58.260Z,13.31
2017-06-14T04:49:58.838Z,13.44
2017-06-14T04:50:59.416Z,13.70
2017-06-14T04:51:59.992Z,13.75
2017-06-14T04:53:00.568Z,13.47
2017-06-14T04:54:01.147Z,13.75
2017-06-14T04:55:01.724Z,14.03
2017-06-14T04:56:02.303Z,13.52
2017-06-14T04:57:02.879Z,13.63
2017-06-14T04:58:03.455Z,13.57
2017-06-14T04:59:04.033Z,14.04
2017-06-14T05:00:04.611Z,13.93
2017-06-14T05:01:05.191Z,13.70
2017-06-14T05:02:05.767Z,13.78
2017-06-14T05:03:06.343Z,13.70
2017-06-14T05:04:06.921Z,13.68
2017-06-14T05:05:07.499Z,13.96
2017-06-14T05:06:08.078Z,13.99
2017-06-14T05:07:08.654Z,13.65
2017-06-14T05:08:09.231Z,13.53
2017-06-14T05:09:09.809Z,13.60
2017-06-14T05:10:10.387Z,13.53
2017-06-14T05:11:10.966Z,13.67
2017-06-14T05:12:11.543Z,13.78
2017-06-14T05:13:12.119Z,13.74
2017-06-14T05:14:12.698Z,13.79
2017-06-14T05:15:13.288Z,13.68
2017-06-14T05:16:13.865Z,13.72
2017-06-14T05:17:14.444Z,13.65
2017-06-14T05:18:15.021Z,13.70
2017-06-14T05:19:15.598Z,13.78
2017-06-14T05:20:16.176Z,13.95
2017-06-14T05:21:16.752Z,14.05
2017-06-14T05:22:17.332Z,14.07
2017-06-14T05:23:17.909Z,14.18
2017-06-14T05:24:18.487Z,13.96
2017-06-14T05:25:19.065Z,14.15
2017-06-14T05:26:19.641Z,14.33
2017-06-14T05:27:20.220Z,14.48
2017-06-14T05:28:20.798Z,14.29
2017-06-14T05:29:21.377Z,14.28
2017-06-14T05:30:21.954Z,14.32
2017-06-14T05:31:22.532Z,14.35
2017-06-14T05:32:23.111Z,14.54
2017-06-14T05:33:23.688Z,14.55
2017-06-14T05:34:24.268Z,14.47
2017-06-14T05:35:24.845Z,14.54
2017-06-14T05:36:25.423Z,14.53
2017-06-14T05:37:26.002Z,14.62
2017-06-14T05:38:26.591Z,14.58
2017-06-14T05:39:27.180Z,14.51
2017-06-14T05:40:27.758Z,14.54
2017-06-14T05:41:28.335Z,14.55
2017-06-14T05:42:28.913Z,14.79
2017-06-14T05:43:29.493Z,14.77
2017-06-14T05:44:30.070Z,14.70
2017-06-14T05:45:30.648Z,14.86
2017-06-14T05:46:31.225Z,14.97
2017-06-14T05:47:31.804Z,15.00
2017-06-14T05:48:32.383Z,15.24
2017-06-14T05:49:32.960Z,15.19
2017-06-14T05:50:33.538Z,15.18
2017-06-14T05:51:34.116Z,15.31
2017-06-14T05:52:34.694Z,15.44
2017-06-14T05:53:35.273Z,15.54
2017-06-14T05:54:35.851Z,15.47
2017-06-14T05:55:36.430Z,15.58
2017-06-14T05:56:37.008Z,15.70
2017-06-14T05:57:37.598Z,15.77
2017-06-14T05:58:38.176Z,15.70
2017-06-14T05:59:38.754Z,15.40
2017-06-14T06:00:39.333Z,15.40
2017-06-14T06:01:39.912Z,15.27
2017-06-14T06:02:40.501Z,15.14
2017-06-14T06:03:41.080Z,15.07
2017-06-14T06:04:41.670Z,15.14
2017-06-14T06:05:42.252Z,15.28
2017-06-14T06:06:42.828Z,15.52
2017-06-14T06:07:43.408Z,16.00
2017-06-14T06:08:43.987Z,16.09
2017-06-14T06:09:44.564Z,16.17
2017-06-14T06:10:45.143Z,16.21
2017-06-14T06:11:45.727Z,16.26
2017-06-14T06:12:46.302Z,16.31
2017-06-14T06:13:46.880Z,16.12
2017-06-14T06:14:47.458Z,16.26
2017-06-14T06:15:48.040Z,16.39
2017-06-14T06:16:48.616Z,16.42
2017-06-14T06:17:49.198Z,16.60
2017-06-14T06:18:49.776Z,16.72
2017-06-14T06:19:50.354Z,16.53
2017-06-14T06:20:50.934Z,16.61
2017-06-14T06:21:51.514Z,16.69
2017-06-14T06:22:52.093Z,16.29
2017-06-14T06:23:52.673Z,16.33
2017-06-14T06:24:53.251Z,16.23
2017-06-14T06:25:53.831Z,16.31
2017-06-14T06:26:54.422Z,16.21
2017-06-14T06:27:55.000Z,16.29
2017-06-14T06:28:55.580Z,16.35
2017-06-14T06:29:56.159Z,16.38
2017-06-14T06:30:56.751Z,16.21
2017-06-14T06:31:57.331Z,16.26
2017-06-14T06:32:57.910Z,16.35
2017-06-14T06:33:58.530Z,16.36
2017-06-14T06:34:59.080Z,16.24
2017-06-14T06:35:59.674Z,16.16
2017-06-14T06:37:00.250Z,16.36
2017-06-14T06:38:00.829Z,16.56
2017-06-14T06:39:01.407Z,16.91
2017-06-14T06:40:01.987Z,17.29
2017-06-14T06:41:02.567Z,17.39
2017-06-14T06:42:03.146Z,17.26
2017-06-14T06:43:03.725Z,16.69
2017-06-14T06:44:04.304Z,16.83
2017-06-14T06:45:04.883Z,16.72
2017-06-14T06:46:05.463Z,16.78
2017-06-14T06:47:06.041Z,17.04
2017-06-14T06:48:06.621Z,17.12
2017-06-14T06:49:07.200Z,17.08
2017-06-14T06:50:07.791Z,16.66
2017-06-14T06:51:08.370Z,16.66
2017-06-14T06:52:08.949Z,16.35
2017-06-14T06:53:09.527Z,16.53
2017-06-14T06:54:10.108Z,16.97
2017-06-14T06:55:10.687Z,16.84
2017-06-14T06:56:11.268Z,17.09
2017-06-14T06:57:11.847Z,17.42
2017-06-14T06:58:12.425Z,17.67
2017-06-14T06:59:13.007Z,17.72
2017-06-14T07:00:13.597Z,17.45
2017-06-14T07:01:14.178Z,17.45
2017-06-14T07:02:14.762Z,17.20
2017-06-14T07:03:15.338Z,17.27
2017-06-14T07:04:15.917Z,17.23
2017-06-14T07:05:16.496Z,17.39
2017-06-14T07:06:17.076Z,17.42
2017-06-14T07:07:17.657Z,17.51
2017-06-14T07:08:18.237Z,17.34
2017-06-14T07:09:18.816Z,17.24
2017-06-14T07:10:19.395Z,17.26
2017-06-14T07:11:19.974Z,17.45
2017-06-14T07:12:20.555Z,17.68
2017-06-14T07:13:21.134Z,17.97
2017-06-14T07:14:21.714Z,18.03
2017-06-14T07:15:22.294Z,18.31
2017-06-14T07:16:22.874Z,18.28
2017-06-14T07:17:23.454Z,18.38
2017-06-14T07:18:24.035Z,18.37
2017-06-14T07:19:24.616Z,18.26
2017-06-14T07:20:25.195Z,17.97
2017-06-14T07:21:25.774Z,18.25
2017-06-14T07:22:26.356Z,18.18
2017-06-14T07:23:26.936Z,17.74
2017-06-14T07:24:27.518Z,18.11
2017-06-14T07:25:28.108Z,18.00
2017-06-14T07:26:28.678Z,18.00
2017-06-14T07:27:29.259Z,18.45
2017-06-14T07:28:29.839Z,18.68
2017-06-14T07:29:30.419Z,18.70
2017-06-14T07:30:31.000Z,18.73
2017-06-14T07:31:31.579Z,18.70
2017-06-14T07:32:32.161Z,18.75
2017-06-14T07:33:32.752Z,18.58
2017-06-14T07:34:33.333Z,18.00
2017-06-14T07:35:33.915Z,17.95
2017-06-14T07:36:34.496Z,18.26
2017-06-14T07:37:35.075Z,18.34
2017-06-14T07:38:35.669Z,18.66
2017-06-14T07:39:36.249Z,18.70
2017-06-14T07:40:36.828Z,18.62
2017-06-14T07:41:37.408Z,18.56
2017-06-14T07:42:37.989Z,18.93
2017-06-14T07:43:38.580Z,18.56
2017-06-14T07:44:39.160Z,18.47
2017-06-14T07:45:39.741Z,18.73
2017-06-14T07:46:40.327Z,19.14
2017-06-14T07:47:40.902Z,18.63
2017-06-14T07:48:41.482Z,18.93
2017-06-14T07:49:42.063Z,18.66
2017-06-14T07:50:42.643Z,18.65
2017-06-14T07:51:43.234Z,18.50
2017-06-14T07:52:43.815Z,18.90
2017-06-14T07:53:44.396Z,18.96
2017-06-14T07:54:44.977Z,19.11
2017-06-14T07:55:45.558Z,18.92
2017-06-14T07:56:46.139Z,19.36
2017-06-14T07:57:46.719Z,18.96
2017-06-14T07:58:47.299Z,19.08
2017-06-14T07:59:47.881Z,19.26
2017-06-14T08:00:48.463Z,19.39
2017-06-14T08:01:49.054Z,19.40
2017-06-14T08:02:49.635Z,19.45
2017-06-14T08:03:50.219Z,19.14
2017-06-14T08:04:50.798Z,18.80
2017-06-14T08:05:51.390Z,18.53
2017-06-14T08:06:51.970Z,18.41
2017-06-14T08:07:52.550Z,18.23
2017-06-14T08:08:53.130Z,18.34
2017-06-14T08:09:53.723Z,18.49
2017-06-14T08:10:54.305Z,18.81
2017-06-14T08:11:54.883Z,19.11
2017-06-14T08:12:55.473Z,19.18
2017-06-14T08:13:56.047Z,19.41
2017-06-14T08:14:56.628Z,19.29
2017-06-14T08:15:57.220Z,19.27
2017-06-14T08:16:57.802Z,19.44
2017-06-14T08:17:58.383Z,19.09
2017-06-14T08:18:58.977Z,19.39
2017-06-14T08:19:59.557Z,19.47
2017-06-14T08:21:00.149Z,18.99
2017-06-14T08:22:00.730Z,19.40
2017-06-14T08:23:01.311Z,19.30
2017-06-14T08:24:01.891Z,19.14
2017-06-14T08:25:02.472Z,19.00
2017-06-14T08:26:03.054Z,18.89
2017-06-14T08:27:03.635Z,19.12
2017-06-14T08:28:04.229Z,19.40
2017-06-14T08:29:04.810Z,19.36
2017-06-14T08:30:05.390Z,19.55
2017-06-14T08:31:05.984Z,19.71
2017-06-14T08:32:06.565Z,19.88
2017-06-14T08:33:07.146Z,19.30
2017-06-14T08:34:07.728Z,18.80
2017-06-14T08:35:08.308Z,19.02
2017-06-14T08:36:08.889Z,19.33
2017-06-14T08:37:09.471Z,19.12
2017-06-14T08:38:10.053Z,19.09
2017-06-14T08:39:10.632Z,18.83
2017-06-14T08:40:11.213Z,19.37
2017-06-14T08:41:11.794Z,19.91
2017-06-14T08:42:12.377Z,20.06
2017-06-14T08:43:12.958Z,20.11
2017-06-14T08:44:13.540Z,20.50
2017-06-14T08:45:14.121Z,20.58
2017-06-14T08:46:14.714Z,20.75
2017-06-14T08:47:15.294Z,20.60
2017-06-14T08:48:15.875Z,20.51
2017-06-14T08:49:16.456Z,20.26
2017-06-14T08:50:17.039Z,20.25
2017-06-14T08:51:17.620Z,20.62
2017-06-14T08:52:18.205Z,20.75
2017-06-14T08:53:18.783Z,20.47
2017-06-14T08:54:19.368Z,20.72
2017-06-14T08:55:19.948Z,20.60
2017-06-14T08:56:20.529Z,21.07
2017-06-14T08:57:21.111Z,21.52
2017-06-14T08:58:21.692Z,21.60
2017-06-14T08:59:22.278Z,20.67
2017-06-14T09:00:22.857Z,20.24
2017-06-14T09:01:23.437Z,19.99
2017-06-14T09:02:24.023Z,20.40
2017-06-14T09:03:24.600Z,20.75
2017-06-14T09:04:25.182Z,20.69
2017-06-14T09:05:25.765Z,21.20
2017-06-14T09:06:26.346Z,20.63
2017-06-14T09:07:26.929Z,20.50
2017-06-14T09:08:27.510Z,20.50
2017-06-14T09:09:28.091Z,20.87
2017-06-14T09:10:28.674Z,20.70
2017-06-14T09:11:29.256Z,20.75
2017-06-14T09:12:29.842Z,21.32
2017-06-14T09:13:30.421Z,21.45
2017-06-14T09:14:31.002Z,21.22
2017-06-14T09:15:31.585Z,20.80
2017-06-14T09:16:32.168Z,21.03
2017-06-14T09:17:32.751Z,20.85
2017-06-14T09:18:33.332Z,20.78
2017-06-14T09:19:33.914Z,20.84
2017-06-14T09:20:34.497Z,20.52
2017-06-14T09:21:35.080Z,20.47
2017-06-14T09:22:35.673Z,20.56
2017-06-14T09:23:36.257Z,20.62
2017-06-14T09:24:36.837Z,20.90
2017-06-14T09:25:37.420Z,21.03
2017-06-14T09:26:38.001Z,21.70
2017-06-14T09:27:38.584Z,21.64
2017-06-14T09:28:39.167Z,21.62
2017-06-14T09:29:39.760Z,21.72
2017-06-14T09:30:40.342Z,21.43
2017-06-14T09:31:40.926Z,21.22
2017-06-14T09:32:41.506Z,21.55
2017-06-14T09:33:42.088Z,21.87
2017-06-14T09:34:42.669Z,21.43
2017-06-14T09:35:43.251Z,20.80
2017-06-14T09:36:43.835Z,20.59
2017-06-14T09:37:44.417Z,20.24
2017-06-14T09:38:44.999Z,20.66
2017-06-14T09:39:45.583Z,20.70
2017-06-14T09:40:46.162Z,20.59
2017-06-14T09:41:46.746Z,20.56
2017-06-14T09:42:47.328Z,21.27
2017-06-14T09:43:47.920Z,20.99
2017-06-14T09:44:48.505Z,21.05
2017-06-14T09:45:49.086Z,21.17
2017-06-14T09:46:49.668Z,21.52
2017-06-14T09:47:50.250Z,21.52
2017-06-14T09:48:50.832Z,21.52
2017-06-14T09:49:51.416Z,21.60
2017-06-14T09:50:51.997Z,21.85
2017-06-14T09:51:52.579Z,21.93
2017-06-14T09:52:53.160Z,21.95
2017-06-14T09:53:53.742Z,22.10
2017-06-14T09:54:54.326Z,21.89
2017-06-14T09:55:54.907Z,21.39
2017-06-14T09:56:55.490Z,21.43
2017-06-14T09:57:56.073Z,21.52
2017-06-14T09:58:56.653Z,21.06
2017-06-14T09:59:57.237Z,21.70
2017-06-14T10:00:57.820Z,22.43
2017-06-14T10:01:58.403Z,22.98
2017-06-14T10:02:58.985Z,21.70
2017-06-14T10:03:59.578Z,21.60
2017-06-14T10:05:00.161Z,21.64
2017-06-14T10:06:00.743Z,22.07
2017-06-14T10:07:01.325Z,22.07
2017-06-14T10:08:01.909Z,21.51
2017-06-14T10:09:02.490Z,21.48
2017-06-14T10:10:03.074Z,21.83
2017-06-14T10:11:03.655Z,22.18
2017-06-14T10:12:04.237Z,22.63
2017-06-14T10:13:04.821Z,21.98
2017-06-14T10:14:05.403Z,22.11
2017-06-14T10:15:05.986Z,21.91
2017-06-14T10:16:06.567Z,21.89
2017-06-14T10:17:07.149Z,21.50
2017-06-14T10:18:07.735Z,21.52
2017-06-14T10:19:08.316Z,21.77
2017-06-14T10:20:08.899Z,22.15
2017-06-14T10:21:09.482Z,22.14
2017-06-14T10:22:10.063Z,21.55
2017-06-14T10:23:10.647Z,21.52
2017-06-14T10:24:11.230Z,21.46
2017-06-14T10:25:11.814Z,21.29
2017-06-14T10:26:12.395Z,21.46
2017-06-14T10:27:12.977Z,22.06
2017-06-14T10:28:13.561Z,22.23
2017-06-14T10:29:14.144Z,22.81
2017-06-14T10:30:14.730Z,22.99
2017-06-14T10:31:15.309Z,22.17
2017-06-14T10:32:15.891Z,22.11
2017-06-14T10:33:16.475Z,21.85
2017-06-14T10:34:17.059Z,21.54
2017-06-14T10:35:17.641Z,21.48
2017-06-14T10:36:18.223Z,21.42
2017-06-14T10:37:18.805Z,21.82
2017-06-14T10:38:19.391Z,22.73
2017-06-14T10:39:19.983Z,22.90
2017-06-14T10:40:20.565Z,23.06
2017-06-14T10:41:21.149Z,22.70
2017-06-14T10:42:21.731Z,22.57
2017-06-14T10:43:22.314Z,22.30
2017-06-14T10:44:22.896Z,22.32
2017-06-14T10:45:23.491Z,21.70
2017-06-14T10:46:24.072Z,21.60
2017-06-14T10:47:24.654Z,21.89
2017-06-14T10:48:25.237Z,22.26
2017-06-14T10:49:25.823Z,22.54
2017-06-14T10:50:26.403Z,22.94
2017-06-14T10:51:26.986Z,22.60
2017-06-14T10:52:27.567Z,22.70
2017-06-14T10:53:28.149Z,22.18
2017-06-14T10:54:28.733Z,22.08
2017-06-14T10:55:29.314Z,22.25
2017-06-14T10:56:29.900Z,22.96
2017-06-14T10:57:30.484Z,23.05
2017-06-14T10:58:31.063Z,22.99
2017-06-14T10:59:31.647Z,22.57
2017-06-14T11:00:32.230Z,22.14
2017-06-14T11:01:32.814Z,22.07
2017-06-14T11:02:33.397Z,22.22
2017-06-14T11:03:33.978Z,22.15
2017-06-14T11:04:34.589Z,22.68
2017-06-14T11:05:35.145Z,22.60
2017-06-14T11:06:35.730Z,22.72
2017-06-14T11:07:36.311Z,22.62
2017-06-14T11:08:36.893Z,22.44
2017-06-14T11:09:37.477Z,22.59
2017-06-14T11:10:38.060Z,22.60
2017-06-14T11:11:38.645Z,22.81
2017-06-14T11:12:39.239Z,23.09
2017-06-14T11:13:39.821Z,22.99
2017-06-14T11:14:40.403Z,23.24
2017-06-14T11:15:40.985Z,23.00
2017-06-14T11:16:41.569Z,23.39
2017-06-14T11:17:42.158Z,23.95
2017-06-14T11:18:42.740Z,23.74
2017-06-14T11:19:43.323Z,23.18
2017-06-14T11:20:43.906Z,22.80
2017-06-14T11:21:44.488Z,23.24
2017-06-14T11:22:45.073Z,22.90
2017-06-14T11:23:45.656Z,23.62
2017-06-14T11:24:46.236Z,23.73
2017-06-14T11:25:46.819Z,24.06
2017-06-14T11:26:47.409Z,24.36
2017-06-14T11:27:47.986Z,24.50
2017-06-14T11:28:48.569Z,24.18
2017-06-14T11:29:49.151Z,23.96
2017-06-14T11:30:49.733Z,23.96
2017-06-14T11:31:50.318Z,23.80
2017-06-14T11:32:50.901Z,23.84
2017-06-14T11:33:51.483Z,24.35
2017-06-14T11:34:52.067Z,23.74
2017-06-14T11:35:52.649Z,23.66
2017-06-14T11:36:53.232Z,24.02
2017-06-14T11:37:53.816Z,24.28
2017-06-14T11:38:54.399Z,24.16
2017-06-14T11:39:54.984Z,24.30
2017-06-14T11:40:55.579Z,24.08
2017-06-14T11:41:56.161Z,24.43
2017-06-14T11:42:56.744Z,24.50
2017-06-14T11:43:57.327Z,24.55
2017-06-14T11:44:57.910Z,24.54
2017-06-14T11:45:58.505Z,24.38
2017-06-14T11:46:59.087Z,24.40
2017-06-14T11:47:59.671Z,24.74
2017-06-14T11:49:00.256Z,24.55
2017-06-14T11:50:00.838Z,24.40
2017-06-14T11:51:01.422Z,24.13
2017-06-14T11:52:02.004Z,24.54
2017-06-14T11:53:02.587Z,24.48
2017-06-14T11:54:03.172Z,24.69
2017-06-14T11:55:03.756Z,24.36
2017-06-14T11:56:04.340Z,24.50
2017-06-14T11:57:04.923Z,24.14
2017-06-14T11:58:05.506Z,24.57
2017-06-14T11:59:06.101Z,23.99
2017-06-14T12:00:06.688Z,23.68
2017-06-14T12:01:07.267Z,23.61
2017-06-14T12:02:07.862Z,23.46
2017-06-14T12:03:08.444Z,23.21
2017-06-14T12:04:09.040Z,23.43
2017-06-14T12:05:09.622Z,23.76
2017-06-14T12:06:10.207Z,24.50
2017-06-14T12:07:10.790Z,24.14
2017-06-14T12:08:11.375Z,23.71
2017-06-14T12:09:11.959Z,23.41
2017-06-14T12:10:12.542Z,23.41
2017-06-14T12:11:13.126Z,23.48
2017-06-14T12:12:13.711Z,24.29
2017-06-14T12:13:14.297Z,25.11
2017-06-14T12:14:14.881Z,25.62
2017-06-14T12:15:15.465Z,24.78
2017-06-14T12:16:16.060Z,24.74
2017-06-14T12:17:16.644Z,24.88
2017-06-14T12:18:17.229Z,25.17
2017-06-14T12:19:17.825Z,25.32
2017-06-14T12:20:18.410Z,25.68
2017-06-14T12:21:18.995Z,24.99
2017-06-14T12:22:19.580Z,25.51
2017-06-14T12:23:20.164Z,24.86
2017-06-14T12:24:20.750Z,24.53
2017-06-14T12:25:21.335Z,24.40
2017-06-14T12:26:21.919Z,24.93
2017-06-14T12:27:22.503Z,24.55
2017-06-14T12:28:23.089Z,24.48
2017-06-14T12:29:23.684Z,24.30
2017-06-14T12:30:24.268Z,24.03
2017-06-14T12:31:24.853Z,23.66
2017-06-14T12:32:25.438Z,24.01
2017-06-14T12:33:26.026Z,24.16
2017-06-14T12:34:26.606Z,23.87
2017-06-14T12:35:27.192Z,23.65
2017-06-14T12:36:27.777Z,23.68
2017-06-14T12:37:28.362Z,23.59
2017-06-14T12:38:28.946Z,23.61
2017-06-14T12:39:29.531Z,23.80
2017-06-14T12:40:30.116Z,24.01
2017-06-14T12:41:30.707Z,24.17
2017-06-14T12:42:31.285Z,24.26
2017-06-14T12:43:31.871Z,24.81
2017-06-14T12:44:32.456Z,24.77
2017-06-14T12:45:33.041Z,25.44
2017-06-14T12:46:33.624Z,25.43
2017-06-14T12:47:34.208Z,25.28
2017-06-14T12:48:34.793Z,25.73
2017-06-14T12:49:35.379Z,26.10
2017-06-14T12:50:35.963Z,25.75
2017-06-14T12:51:36.547Z,25.63
2017-06-14T12:52:37.133Z,25.63
2017-06-14T12:53:37.717Z,25.91
2017-06-14T12:54:38.302Z,25.83
2017-06-14T12:55:38.886Z,25.60
2017-06-14T12:56:39.472Z,25.31
2017-06-14T12:57:40.059Z,24.86
2017-06-14T12:58:40.644Z,25.10
2017-06-14T12:59:41.228Z,24.86